Terminal Aerodrome Forecast
Issued by NWS

Home | Current Version | Previous Version | Text Only | Print | Product List | Glossary Off
Versions: 1 2 3 4 5 6 7 8 9 10 11 12 13 14 15

000
FTUS42 KTBW 302330
TAFPIE
TAF
KPIE 302330Z 0100/0124 28009KT P6SM VCSH FEW040 BKN250
     FM010300 24005KT P6SM FEW040 SCT200
     FM011600 28009KT P6SM SCT030 SCT250=

USA.gov is the U.S. government's official web portal to all federal, state and local government web resources and services.